sensor_id;sensor_type;location;lat;lon;timestamp;P1;durP1;ratioP1;P2;durP2;ratioP2
7795;SDS011;3942;51.518;6.912;2023-03-20T00:03:11;30.42;;;17.52;;
7795;SDS011;3942;51.518;6.912;2023-03-20T00:08:13;31.40;;;17.83;;
7795;SDS011;3942;51.518;6.912;2023-03-20T00:13:18;31.58;;;18.08;;
7795;SDS011;3942;51.518;6.912;2023-03-20T00:18:22;29.50;;;16.50;;
7795;SDS011;3942;51.518;6.912;2023-03-20T00:23:25;25.40;;;15.77;;
7795;SDS011;3942;51.518;6.912;2023-03-20T00:28:31;27.33;;;15.68;;
7795;SDS011;3942;51.518;6.912;2023-03-20T00:33:39;28.35;;;15.93;;
7795;SDS011;3942;51.518;6.912;2023-03-20T00:38:41;32.05;;;16.25;;
7795;SDS011;3942;51.518;6.912;2023-03-20T00:43:45;28.45;;;16.92;;
7795;SDS011;3942;51.518;6.912;2023-03-20T00:48:48;22.58;;;14.05;;
7795;SDS011;3942;51.518;6.912;2023-03-20T00:53:50;25.27;;;15.45;;
7795;SDS011;3942;51.518;6.912;2023-03-20T00:58:54;22.95;;;13.82;;
7795;SDS011;3942;51.518;6.912;2023-03-20T01:03:57;21.38;;;12.68;;
7795;SDS011;3942;51.518;6.912;2023-03-20T01:08:59;21.55;;;12.07;;
7795;SDS011;3942;51.518;6.912;2023-03-20T01:14:02;21.40;;;12.75;;
7795;SDS011;3942;51.518;6.912;2023-03-20T01:19:05;20.40;;;12.38;;
7795;SDS011;3942;51.518;6.912;2023-03-20T01:24:07;28.95;;;16.05;;
7795;SDS011;3942;51.518;6.912;2023-03-20T01:29:17;31.90;;;21.05;;
7795;SDS011;3942;51.518;6.912;2023-03-20T01:34:20;30.52;;;19.52;;
7795;SDS011;3942;51.518;6.912;2023-03-20T01:39:31;23.30;;;13.60;;
7795;SDS011;3942;51.518;6.912;2023-03-20T01:44:36;25.35;;;13.43;;
7795;SDS011;3942;51.518;6.912;2023-03-20T01:55:17;16.98;;;11.00;;
7795;SDS011;3942;51.518;6.912;2023-03-20T02:00:21;18.65;;;11.23;;
7795;SDS011;3942;51.518;6.912;2023-03-20T02:05:23;16.77;;;9.43;;
7795;SDS011;3942;51.518;6.912;2023-03-20T02:10:26;15.75;;;8.77;;
7795;SDS011;3942;51.518;6.912;2023-03-20T02:15:30;11.43;;;6.43;;
7795;SDS011;3942;51.518;6.912;2023-03-20T02:20:40;8.75;;;5.47;;
7795;SDS011;3942;51.518;6.912;2023-03-20T02:31:15;11.52;;;5.53;;
7795;SDS011;3942;51.518;6.912;2023-03-20T02:41:56;12.13;;;6.45;;
7795;SDS011;3942;51.518;6.912;2023-03-20T02:47:04;11.52;;;6.35;;
7795;SDS011;3942;51.518;6.912;2023-03-20T02:52:10;9.68;;;6.00;;
7795;SDS011;3942;51.518;6.912;2023-03-20T02:57:18;13.65;;;7.03;;
7795;SDS011;3942;51.518;6.912;2023-03-20T03:02:30;10.40;;;5.78;;
7795;SDS011;3942;51.518;6.912;2023-03-20T03:07:34;9.00;;;4.95;;
7795;SDS011;3942;51.518;6.912;2023-03-20T03:12:39;17.05;;;8.55;;
7795;SDS011;3942;51.518;6.912;2023-03-20T03:17:43;8.82;;;4.97;;
7795;SDS011;3942;51.518;6.912;2023-03-20T03:22:46;10.35;;;5.88;;
7795;SDS011;3942;51.518;6.912;2023-03-20T03:27:52;9.57;;;5.10;;
7795;SDS011;3942;51.518;6.912;2023-03-20T03:33:08;10.05;;;5.68;;
7795;SDS011;3942;51.518;6.912;2023-03-20T03:38:19;8.07;;;4.72;;
7795;SDS011;3942;51.518;6.912;2023-03-20T03:43:25;18.58;;;10.07;;
7795;SDS011;3942;51.518;6.912;2023-03-20T03:48:29;11.57;;;6.18;;
7795;SDS011;3942;51.518;6.912;2023-03-20T03:53:34;10.98;;;6.50;;
7795;SDS011;3942;51.518;6.912;2023-03-20T03:58:40;17.38;;;9.98;;
7795;SDS011;3942;51.518;6.912;2023-03-20T04:03:45;15.98;;;8.63;;
7795;SDS011;3942;51.518;6.912;2023-03-20T04:08:48;17.70;;;8.88;;
7795;SDS011;3942;51.518;6.912;2023-03-20T04:13:52;15.60;;;7.90;;
7795;SDS011;3942;51.518;6.912;2023-03-20T04:18:54;15.27;;;7.88;;
7795;SDS011;3942;51.518;6.912;2023-03-20T04:23:56;16.45;;;8.95;;
7795;SDS011;3942;51.518;6.912;2023-03-20T04:29:00;15.95;;;8.73;;
7795;SDS011;3942;51.518;6.912;2023-03-20T04:34:02;15.55;;;9.32;;
7795;SDS011;3942;51.518;6.912;2023-03-20T04:39:04;20.85;;;10.60;;
7795;SDS011;3942;51.518;6.912;2023-03-20T04:44:07;16.08;;;8.85;;
7795;SDS011;3942;51.518;6.912;2023-03-20T04:49:09;18.65;;;9.90;;
7795;SDS011;3942;51.518;6.912;2023-03-20T04:54:11;23.17;;;12.15;;
7795;SDS011;3942;51.518;6.912;2023-03-20T04:59:15;23.15;;;13.23;;
7795;SDS011;3942;51.518;6.912;2023-03-20T05:04:17;20.50;;;11.25;;
7795;SDS011;3942;51.518;6.912;2023-03-20T05:09:19;21.75;;;12.25;;
7795;SDS011;3942;51.518;6.912;2023-03-20T05:14:22;22.23;;;12.70;;
7795;SDS011;3942;51.518;6.912;2023-03-20T05:19:24;27.08;;;12.05;;
7795;SDS011;3942;51.518;6.912;2023-03-20T05:24:26;56.10;;;30.55;;
7795;SDS011;3942;51.518;6.912;2023-03-20T05:29:30;29.60;;;14.98;;
7795;SDS011;3942;51.518;6.912;2023-03-20T05:34:32;29.23;;;14.93;;
7795;SDS011;3942;51.518;6.912;2023-03-20T05:39:34;29.80;;;15.40;;
7795;SDS011;3942;51.518;6.912;2023-03-20T05:44:38;31.63;;;15.23;;
7795;SDS011;3942;51.518;6.912;2023-03-20T05:49:40;30.05;;;14.80;;
7795;SDS011;3942;51.518;6.912;2023-03-20T05:54:42;29.33;;;13.23;;
7795;SDS011;3942;51.518;6.912;2023-03-20T05:59:45;23.88;;;11.15;;
7795;SDS011;3942;51.518;6.912;2023-03-20T06:04:47;20.23;;;9.48;;
7795;SDS011;3942;51.518;6.912;2023-03-20T06:09:49;22.65;;;9.98;;
7795;SDS011;3942;51.518;6.912;2023-03-20T06:14:53;19.17;;;8.90;;
7795;SDS011;3942;51.518;6.912;2023-03-20T06:19:55;19.05;;;9.93;;
7795;SDS011;3942;51.518;6.912;2023-03-20T06:24:57;21.48;;;11.52;;
7795;SDS011;3942;51.518;6.912;2023-03-20T06:30:00;21.98;;;10.77;;
7795;SDS011;3942;51.518;6.912;2023-03-20T06:35:02;22.83;;;13.15;;
7795;SDS011;3942;51.518;6.912;2023-03-20T06:40:06;22.50;;;10.95;;
7795;SDS011;3942;51.518;6.912;2023-03-20T06:45:12;18.17;;;9.30;;
7795;SDS011;3942;51.518;6.912;2023-03-20T06:50:13;18.40;;;9.85;;
7795;SDS011;3942;51.518;6.912;2023-03-20T06:55:16;18.65;;;9.00;;
7795;SDS011;3942;51.518;6.912;2023-03-20T07:00:19;19.40;;;8.90;;
7795;SDS011;3942;51.518;6.912;2023-03-20T07:05:21;21.08;;;8.98;;
7795;SDS011;3942;51.518;6.912;2023-03-20T07:10:23;24.17;;;8.02;;
7795;SDS011;3942;51.518;6.912;2023-03-20T07:15:27;20.60;;;7.82;;
7795;SDS011;3942;51.518;6.912;2023-03-20T07:20:29;12.52;;;6.65;;
7795;SDS011;3942;51.518;6.912;2023-03-20T07:25:31;16.08;;;7.65;;
7795;SDS011;3942;51.518;6.912;2023-03-20T07:30:35;15.65;;;6.78;;
7795;SDS011;3942;51.518;6.912;2023-03-20T07:35:37;87.78;;;49.42;;
7795;SDS011;3942;51.518;6.912;2023-03-20T07:40:39;84.72;;;44.90;;
7795;SDS011;3942;51.518;6.912;2023-03-20T07:45:43;61.83;;;29.48;;
7795;SDS011;3942;51.518;6.912;2023-03-20T07:50:44;28.80;;;13.90;;
7795;SDS011;3942;51.518;6.912;2023-03-20T07:55:46;24.10;;;11.60;;
7795;SDS011;3942;51.518;6.912;2023-03-20T08:00:50;25.95;;;11.57;;
7795;SDS011;3942;51.518;6.912;2023-03-20T08:05:52;27.27;;;11.98;;
7795;SDS011;3942;51.518;6.912;2023-03-20T08:10:54;25.42;;;11.15;;
7795;SDS011;3942;51.518;6.912;2023-03-20T08:15:58;22.45;;;11.00;;
7795;SDS011;3942;51.518;6.912;2023-03-20T08:21:00;21.55;;;9.35;;
7795;SDS011;3942;51.518;6.912;2023-03-20T08:26:02;19.00;;;9.50;;
7795;SDS011;3942;51.518;6.912;2023-03-20T08:31:07;19.50;;;10.75;;
7795;SDS011;3942;51.518;6.912;2023-03-20T08:36:10;21.45;;;8.10;;
7795;SDS011;3942;51.518;6.912;2023-03-20T08:41:14;21.92;;;8.07;;
7795;SDS011;3942;51.518;6.912;2023-03-20T08:46:17;16.63;;;7.78;;
7795;SDS011;3942;51.518;6.912;2023-03-20T08:51:19;13.38;;;7.25;;
7795;SDS011;3942;51.518;6.912;2023-03-20T08:56:21;13.80;;;5.18;;
7795;SDS011;3942;51.518;6.912;2023-03-20T09:01:25;14.35;;;5.90;;
7795;SDS011;3942;51.518;6.912;2023-03-20T09:06:27;13.55;;;5.72;;
7795;SDS011;3942;51.518;6.912;2023-03-20T09:11:29;13.60;;;5.00;;
7795;SDS011;3942;51.518;6.912;2023-03-20T09:16:32;12.85;;;5.53;;
7795;SDS011;3942;51.518;6.912;2023-03-20T09:21:35;16.15;;;7.35;;
7795;SDS011;3942;51.518;6.912;2023-03-20T09:26:37;10.93;;;3.97;;
7795;SDS011;3942;51.518;6.912;2023-03-20T09:31:41;11.70;;;3.88;;
7795;SDS011;3942;51.518;6.912;2023-03-20T09:36:43;8.55;;;3.50;;
7795;SDS011;3942;51.518;6.912;2023-03-20T09:41:45;10.38;;;3.92;;
7795;SDS011;3942;51.518;6.912;2023-03-20T09:46:57;11.32;;;3.85;;
7795;SDS011;3942;51.518;6.912;2023-03-20T09:57:12;8.85;;;3.13;;
7795;SDS011;3942;51.518;6.912;2023-03-20T10:02:24;6.75;;;2.80;;
7795;SDS011;3942;51.518;6.912;2023-03-20T10:07:36;9.77;;;2.97;;
7795;SDS011;3942;51.518;6.912;2023-03-20T10:12:42;12.38;;;3.30;;
7795;SDS011;3942;51.518;6.912;2023-03-20T10:17:52;8.13;;;3.28;;
7795;SDS011;3942;51.518;6.912;2023-03-20T10:22:58;12.65;;;3.90;;
7795;SDS011;3942;51.518;6.912;2023-03-20T10:28:05;6.18;;;2.63;;
7795;SDS011;3942;51.518;6.912;2023-03-20T10:33:18;14.02;;;3.50;;
7795;SDS011;3942;51.518;6.912;2023-03-20T10:38:27;12.77;;;3.28;;
7795;SDS011;3942;51.518;6.912;2023-03-20T10:43:38;9.07;;;3.28;;
7795;SDS011;3942;51.518;6.912;2023-03-20T10:48:43;5.30;;;2.58;;
7795;SDS011;3942;51.518;6.912;2023-03-20T10:53:46;8.77;;;3.30;;
7795;SDS011;3942;51.518;6.912;2023-03-20T10:58:52;11.90;;;3.25;;
7795;SDS011;3942;51.518;6.912;2023-03-20T11:03:56;9.85;;;3.08;;
7795;SDS011;3942;51.518;6.912;2023-03-20T11:09:07;8.07;;;3.38;;
7795;SDS011;3942;51.518;6.912;2023-03-20T11:14:15;9.75;;;2.65;;
7795;SDS011;3942;51.518;6.912;2023-03-20T11:19:20;7.00;;;2.28;;
7795;SDS011;3942;51.518;6.912;2023-03-20T11:24:24;9.80;;;3.08;;
7795;SDS011;3942;51.518;6.912;2023-03-20T11:29:30;6.05;;;2.50;;
7795;SDS011;3942;51.518;6.912;2023-03-20T11:34:36;10.65;;;2.97;;
7795;SDS011;3942;51.518;6.912;2023-03-20T11:39:42;8.52;;;2.20;;
7795;SDS011;3942;51.518;6.912;2023-03-20T11:44:58;7.65;;;2.75;;
7795;SDS011;3942;51.518;6.912;2023-03-20T11:50:03;4.32;;;2.15;;
7795;SDS011;3942;51.518;6.912;2023-03-20T11:55:11;6.72;;;2.28;;
7795;SDS011;3942;51.518;6.912;2023-03-20T12:00:25;4.60;;;2.22;;
7795;SDS011;3942;51.518;6.912;2023-03-20T12:05:32;8.10;;;2.78;;
7795;SDS011;3942;51.518;6.912;2023-03-20T12:10:36;6.10;;;2.78;;
7795;SDS011;3942;51.518;6.912;2023-03-20T12:15:43;10.52;;;4.30;;
7795;SDS011;3942;51.518;6.912;2023-03-20T12:20:53;6.70;;;3.20;;
7795;SDS011;3942;51.518;6.912;2023-03-20T12:26:00;10.50;;;3.13;;
7795;SDS011;3942;51.518;6.912;2023-03-20T12:31:05;7.18;;;2.65;;
7795;SDS011;3942;51.518;6.912;2023-03-20T12:36:29;7.80;;;2.20;;
7795;SDS011;3942;51.518;6.912;2023-03-20T12:41:35;11.82;;;2.65;;
7795;SDS011;3942;51.518;6.912;2023-03-20T12:46:40;7.65;;;3.25;;
7795;SDS011;3942;51.518;6.912;2023-03-20T12:51:49;10.68;;;4.43;;
7795;SDS011;3942;51.518;6.912;2023-03-20T12:57:01;8.07;;;3.10;;
7795;SDS011;3942;51.518;6.912;2023-03-20T13:02:09;9.98;;;3.55;;
7795;SDS011;3942;51.518;6.912;2023-03-20T13:07:18;9.88;;;3.90;;
7795;SDS011;3942;51.518;6.912;2023-03-20T13:12:24;10.25;;;4.20;;
7795;SDS011;3942;51.518;6.912;2023-03-20T13:17:31;11.43;;;4.88;;
7795;SDS011;3942;51.518;6.912;2023-03-20T13:22:36;12.93;;;4.82;;
7795;SDS011;3942;51.518;6.912;2023-03-20T13:27:41;10.05;;;5.07;;
7795;SDS011;3942;51.518;6.912;2023-03-20T13:32:51;12.60;;;4.93;;
7795;SDS011;3942;51.518;6.912;2023-03-20T13:37:56;13.10;;;5.43;;
7795;SDS011;3942;51.518;6.912;2023-03-20T13:43:03;8.65;;;3.70;;
7795;SDS011;3942;51.518;6.912;2023-03-20T13:48:18;6.97;;;3.45;;
7795;SDS011;3942;51.518;6.912;2023-03-20T13:53:30;9.27;;;4.18;;
7795;SDS011;3942;51.518;6.912;2023-03-20T14:04:15;11.55;;;4.88;;
7795;SDS011;3942;51.518;6.912;2023-03-20T14:09:24;9.70;;;4.85;;
7795;SDS011;3942;51.518;6.912;2023-03-20T14:14:27;10.85;;;4.38;;
7795;SDS011;3942;51.518;6.912;2023-03-20T14:19:30;13.52;;;5.13;;
7795;SDS011;3942;51.518;6.912;2023-03-20T14:24:35;10.68;;;4.25;;
7795;SDS011;3942;51.518;6.912;2023-03-20T14:29:39;11.15;;;4.97;;
7795;SDS011;3942;51.518;6.912;2023-03-20T14:34:45;11.50;;;5.45;;
7795;SDS011;3942;51.518;6.912;2023-03-20T14:39:49;8.77;;;4.60;;
7795;SDS011;3942;51.518;6.912;2023-03-20T14:45:01;11.13;;;4.43;;
7795;SDS011;3942;51.518;6.912;2023-03-20T14:50:09;11.48;;;4.70;;
7795;SDS011;3942;51.518;6.912;2023-03-20T15:00:42;11.57;;;4.80;;
7795;SDS011;3942;51.518;6.912;2023-03-20T15:05:46;14.32;;;4.63;;
7795;SDS011;3942;51.518;6.912;2023-03-20T15:10:49;12.88;;;5.47;;
7795;SDS011;3942;51.518;6.912;2023-03-20T15:15:54;9.82;;;6.00;;
7795;SDS011;3942;51.518;6.912;2023-03-20T15:20:57;10.85;;;4.70;;
7795;SDS011;3942;51.518;6.912;2023-03-20T15:25:59;13.27;;;5.10;;
7795;SDS011;3942;51.518;6.912;2023-03-20T15:31:02;14.65;;;4.78;;
7795;SDS011;3942;51.518;6.912;2023-03-20T15:36:08;14.02;;;5.07;;
7795;SDS011;3942;51.518;6.912;2023-03-20T15:41:21;19.20;;;5.82;;
7795;SDS011;3942;51.518;6.912;2023-03-20T15:46:26;21.80;;;5.93;;
7795;SDS011;3942;51.518;6.912;2023-03-20T15:51:28;14.65;;;4.63;;
7795;SDS011;3942;51.518;6.912;2023-03-20T15:56:30;16.25;;;5.20;;
7795;SDS011;3942;51.518;6.912;2023-03-20T16:01:34;12.93;;;4.18;;
7795;SDS011;3942;51.518;6.912;2023-03-20T16:06:35;10.93;;;5.30;;
7795;SDS011;3942;51.518;6.912;2023-03-20T16:11:47;13.10;;;4.72;;
7795;SDS011;3942;51.518;6.912;2023-03-20T16:16:57;17.65;;;7.15;;
7795;SDS011;3942;51.518;6.912;2023-03-20T16:22:00;12.35;;;4.45;;
7795;SDS011;3942;51.518;6.912;2023-03-20T16:27:12;15.05;;;5.22;;
7795;SDS011;3942;51.518;6.912;2023-03-20T16:32:21;12.93;;;4.70;;
7795;SDS011;3942;51.518;6.912;2023-03-20T16:37:26;11.30;;;4.37;;
7795;SDS011;3942;51.518;6.912;2023-03-20T16:42:29;12.70;;;4.50;;
7795;SDS011;3942;51.518;6.912;2023-03-20T16:47:34;9.88;;;4.85;;
7795;SDS011;3942;51.518;6.912;2023-03-20T16:52:38;11.50;;;5.05;;
7795;SDS011;3942;51.518;6.912;2023-03-20T16:57:41;17.17;;;6.18;;
7795;SDS011;3942;51.518;6.912;2023-03-20T17:02:49;15.00;;;4.88;;
7795;SDS011;3942;51.518;6.912;2023-03-20T17:07:54;15.00;;;6.85;;
7795;SDS011;3942;51.518;6.912;2023-03-20T17:13:05;14.13;;;4.70;;
7795;SDS011;3942;51.518;6.912;2023-03-20T17:18:11;14.07;;;4.80;;
7795;SDS011;3942;51.518;6.912;2023-03-20T17:23:14;13.60;;;4.55;;
7795;SDS011;3942;51.518;6.912;2023-03-20T17:28:19;15.10;;;5.90;;
7795;SDS011;3942;51.518;6.912;2023-03-20T17:33:25;10.32;;;4.20;;
7795;SDS011;3942;51.518;6.912;2023-03-20T17:38:28;10.73;;;4.60;;
7795;SDS011;3942;51.518;6.912;2023-03-20T17:43:30;15.43;;;4.88;;
7795;SDS011;3942;51.518;6.912;2023-03-20T17:48:33;13.68;;;4.72;;
7795;SDS011;3942;51.518;6.912;2023-03-20T17:53:35;13.88;;;4.55;;
7795;SDS011;3942;51.518;6.912;2023-03-20T17:58:37;12.00;;;4.20;;
7795;SDS011;3942;51.518;6.912;2023-03-20T18:03:41;12.65;;;5.00;;
7795;SDS011;3942;51.518;6.912;2023-03-20T18:08:43;10.27;;;4.85;;
7795;SDS011;3942;51.518;6.912;2023-03-20T18:13:45;17.88;;;6.68;;
7795;SDS011;3942;51.518;6.912;2023-03-20T18:18:48;15.13;;;5.97;;
7795;SDS011;3942;51.518;6.912;2023-03-20T18:23:51;10.88;;;5.05;;
7795;SDS011;3942;51.518;6.912;2023-03-20T18:28:53;15.48;;;8.23;;
7795;SDS011;3942;51.518;6.912;2023-03-20T18:33:57;15.38;;;4.22;;
7795;SDS011;3942;51.518;6.912;2023-03-20T18:38:59;10.02;;;3.92;;
7795;SDS011;3942;51.518;6.912;2023-03-20T18:44:01;20.98;;;7.75;;
7795;SDS011;3942;51.518;6.912;2023-03-20T18:49:05;13.70;;;5.65;;
7795;SDS011;3942;51.518;6.912;2023-03-20T18:54:07;16.67;;;4.85;;
7795;SDS011;3942;51.518;6.912;2023-03-20T18:59:10;9.02;;;4.40;;
7795;SDS011;3942;51.518;6.912;2023-03-20T19:04:14;12.90;;;4.65;;
7795;SDS011;3942;51.518;6.912;2023-03-20T19:09:16;12.85;;;5.82;;
7795;SDS011;3942;51.518;6.912;2023-03-20T19:14:18;18.48;;;6.07;;
7795;SDS011;3942;51.518;6.912;2023-03-20T19:19:21;17.52;;;5.20;;
7795;SDS011;3942;51.518;6.912;2023-03-20T19:24:23;19.48;;;7.78;;
7795;SDS011;3942;51.518;6.912;2023-03-20T19:29:25;12.45;;;4.40;;
7795;SDS011;3942;51.518;6.912;2023-03-20T19:34:28;13.60;;;5.15;;
7795;SDS011;3942;51.518;6.912;2023-03-20T19:39:30;15.27;;;6.03;;
7795;SDS011;3942;51.518;6.912;2023-03-20T19:44:32;12.38;;;4.40;;
7795;SDS011;3942;51.518;6.912;2023-03-20T19:49:35;13.65;;;4.45;;
7795;SDS011;3942;51.518;6.912;2023-03-20T19:54:37;11.77;;;3.95;;
7795;SDS011;3942;51.518;6.912;2023-03-20T19:59:42;12.63;;;5.63;;
7795;SDS011;3942;51.518;6.912;2023-03-20T20:04:45;11.43;;;4.57;;
7795;SDS011;3942;51.518;6.912;2023-03-20T20:09:47;17.63;;;7.97;;
7795;SDS011;3942;51.518;6.912;2023-03-20T20:14:50;12.63;;;4.70;;
7795;SDS011;3942;51.518;6.912;2023-03-20T20:19:53;16.13;;;4.65;;
7795;SDS011;3942;51.518;6.912;2023-03-20T20:24:55;15.65;;;4.80;;
7795;SDS011;3942;51.518;6.912;2023-03-20T20:29:57;13.30;;;4.75;;
7795;SDS011;3942;51.518;6.912;2023-03-20T20:35:01;11.52;;;4.35;;
7795;SDS011;3942;51.518;6.912;2023-03-20T20:40:05;10.90;;;4.00;;
7795;SDS011;3942;51.518;6.912;2023-03-20T20:45:09;17.08;;;5.75;;
7795;SDS011;3942;51.518;6.912;2023-03-20T20:50:14;9.57;;;3.72;;
7795;SDS011;3942;51.518;6.912;2023-03-20T20:55:17;11.90;;;4.65;;
7795;SDS011;3942;51.518;6.912;2023-03-20T21:00:20;12.35;;;4.85;;
7795;SDS011;3942;51.518;6.912;2023-03-20T21:05:25;8.30;;;4.72;;
7795;SDS011;3942;51.518;6.912;2023-03-20T21:10:30;15.93;;;5.70;;
7795;SDS011;3942;51.518;6.912;2023-03-20T21:15:31;13.40;;;4.53;;
7795;SDS011;3942;51.518;6.912;2023-03-20T21:20:35;17.98;;;4.85;;
7795;SDS011;3942;51.518;6.912;2023-03-20T21:25:37;9.82;;;4.13;;
7795;SDS011;3942;51.518;6.912;2023-03-20T21:30:40;17.42;;;5.13;;
7795;SDS011;3942;51.518;6.912;2023-03-20T21:35:44;13.98;;;5.00;;
7795;SDS011;3942;51.518;6.912;2023-03-20T21:40:46;11.95;;;6.05;;
7795;SDS011;3942;51.518;6.912;2023-03-20T21:45:48;32.13;;;8.23;;
7795;SDS011;3942;51.518;6.912;2023-03-20T21:50:52;14.05;;;6.65;;
7795;SDS011;3942;51.518;6.912;2023-03-20T21:55:53;24.48;;;8.55;;
7795;SDS011;3942;51.518;6.912;2023-03-20T22:00:56;14.15;;;7.93;;
7795;SDS011;3942;51.518;6.912;2023-03-20T22:06:04;19.73;;;7.65;;
7795;SDS011;3942;51.518;6.912;2023-03-20T22:11:07;15.23;;;7.75;;
7795;SDS011;3942;51.518;6.912;2023-03-20T22:16:09;18.95;;;8.52;;
7795;SDS011;3942;51.518;6.912;2023-03-20T22:21:16;19.95;;;7.47;;
7795;SDS011;3942;51.518;6.912;2023-03-20T22:26:18;28.27;;;11.80;;
7795;SDS011;3942;51.518;6.912;2023-03-20T22:31:20;23.73;;;8.15;;
7795;SDS011;3942;51.518;6.912;2023-03-20T22:36:24;17.75;;;7.82;;
7795;SDS011;3942;51.518;6.912;2023-03-20T22:41:26;21.50;;;7.85;;
7795;SDS011;3942;51.518;6.912;2023-03-20T22:46:29;21.10;;;8.35;;
7795;SDS011;3942;51.518;6.912;2023-03-20T22:51:32;21.58;;;8.25;;
7795;SDS011;3942;51.518;6.912;2023-03-20T22:56:34;22.15;;;10.40;;
7795;SDS011;3942;51.518;6.912;2023-03-20T23:01:36;22.20;;;8.30;;
7795;SDS011;3942;51.518;6.912;2023-03-20T23:06:40;16.77;;;8.32;;
7795;SDS011;3942;51.518;6.912;2023-03-20T23:11:42;19.67;;;9.77;;
7795;SDS011;3942;51.518;6.912;2023-03-20T23:16:45;20.27;;;9.00;;
7795;SDS011;3942;51.518;6.912;2023-03-20T23:21:48;22.35;;;9.55;;
7795;SDS011;3942;51.518;6.912;2023-03-20T23:26:50;21.85;;;8.57;;
7795;SDS011;3942;51.518;6.912;2023-03-20T23:31:54;19.02;;;7.55;;
7795;SDS011;3942;51.518;6.912;2023-03-20T23:36:57;15.85;;;8.32;;
7795;SDS011;3942;51.518;6.912;2023-03-20T23:41:59;25.83;;;10.18;;
7795;SDS011;3942;51.518;6.912;2023-03-20T23:47:01;14.52;;;7.88;;
7795;SDS011;3942;51.518;6.912;2023-03-20T23:52:04;20.77;;;8.23;;
7795;SDS011;3942;51.518;6.912;2023-03-20T23:57:07;20.67;;;9.07;;
